createdAt,value
2019-03-13T00:00:07.600Z,27.04
2019-03-13T00:01:07.548Z,27.04
2019-03-13T00:02:07.550Z,27.09
2019-03-13T00:03:07.554Z,27.02
2019-03-13T00:04:07.560Z,27.09
2019-03-13T00:05:07.560Z,27.07
2019-03-13T00:06:07.560Z,27.04
2019-03-13T00:07:07.565Z,27.10
2019-03-13T00:08:07.568Z,27.03
2019-03-13T00:09:07.570Z,27.04
2019-03-13T00:10:07.573Z,27.04
2019-03-13T00:11:07.576Z,27.12
2019-03-13T00:12:07.583Z,27.03
2019-03-13T00:13:07.582Z,27.02
2019-03-13T00:14:07.590Z,27.06
2019-03-13T00:15:07.587Z,27.04
2019-03-13T00:16:07.597Z,27.04
2019-03-13T00:17:07.594Z,27.09
2019-03-13T00:18:07.597Z,27.07
2019-03-13T00:19:07.600Z,27.04
2019-03-13T00:20:07.602Z,27.10
2019-03-13T00:21:07.602Z,27.04
2019-03-13T00:22:07.606Z,27.02
2019-03-13T00:23:07.615Z,27.03
2019-03-13T00:24:07.613Z,27.02
2019-03-13T00:25:07.616Z,27.09
2019-03-13T00:26:07.619Z,27.04
2019-03-13T00:27:07.622Z,27.07
2019-03-13T00:28:07.703Z,27.04
2019-03-13T00:29:07.627Z,26.99
2019-03-13T00:30:07.633Z,27.02
2019-03-13T00:31:07.634Z,27.03
2019-03-13T00:32:07.637Z,27.07
2019-03-13T00:33:07.639Z,26.97
2019-03-13T00:34:07.641Z,27.04
2019-03-13T00:35:07.646Z,27.03
2019-03-13T00:36:07.648Z,27.03
2019-03-13T00:37:07.650Z,27.06
2019-03-13T00:38:07.653Z,27.04
2019-03-13T00:39:07.656Z,27.04
2019-03-13T00:40:07.659Z,27.03
2019-03-13T00:41:07.661Z,26.99
2019-03-13T00:42:07.664Z,27.00
2019-03-13T00:43:07.667Z,27.09
2019-03-13T00:44:07.721Z,27.09
2019-03-13T00:45:07.749Z,26.97
2019-03-13T00:46:07.676Z,26.97
2019-03-13T00:47:07.679Z,27.04
2019-03-13T00:48:07.681Z,26.95
2019-03-13T00:49:07.684Z,27.03
2019-03-13T00:50:07.687Z,26.95
2019-03-13T00:51:07.689Z,27.04
2019-03-13T00:52:07.693Z,27.06
2019-03-13T00:53:07.747Z,27.06
2019-03-13T00:54:07.697Z,26.97
2019-03-13T00:55:07.703Z,27.06
2019-03-13T00:56:07.703Z,26.95
2019-03-13T00:57:07.715Z,27.07
2019-03-13T00:58:07.717Z,27.02
2019-03-13T00:59:07.712Z,26.97
2019-03-13T01:00:07.715Z,26.97
2019-03-13T01:01:07.717Z,27.03
2019-03-13T01:02:07.726Z,27.00
2019-03-13T01:03:07.723Z,26.97
2019-03-13T01:04:07.726Z,26.97
2019-03-13T01:05:07.729Z,26.95
2019-03-13T01:06:07.731Z,26.95
2019-03-13T01:07:07.736Z,26.94
2019-03-13T01:08:07.788Z,26.99
2019-03-13T01:09:07.740Z,26.95
2019-03-13T01:10:07.745Z,27.07
2019-03-13T01:11:07.745Z,26.91
2019-03-13T01:12:07.750Z,27.00
2019-03-13T01:13:07.751Z,26.99
2019-03-13T01:14:07.754Z,26.99
2019-03-13T01:15:07.757Z,27.00
2019-03-13T01:16:07.761Z,26.91
2019-03-13T01:17:07.775Z,26.94
2019-03-13T01:18:07.766Z,26.99
2019-03-13T01:19:07.770Z,26.91
2019-03-13T01:20:07.778Z,26.99
2019-03-13T01:21:07.775Z,26.95
2019-03-13T01:22:07.777Z,26.99
2019-03-13T01:23:07.779Z,27.04
2019-03-13T01:24:07.785Z,26.95
2019-03-13T01:25:07.786Z,26.95
2019-03-13T01:26:07.791Z,26.97
2019-03-13T01:27:07.871Z,26.94
2019-03-13T01:28:07.797Z,26.92
2019-03-13T01:29:07.795Z,26.88
2019-03-13T01:30:07.800Z,26.95
2019-03-13T01:31:07.802Z,26.89
2019-03-13T01:32:07.806Z,26.91
2019-03-13T01:33:07.806Z,26.91
2019-03-13T01:34:07.811Z,26.94
2019-03-13T01:35:07.814Z,26.92
2019-03-13T01:36:07.833Z,26.92
2019-03-13T01:37:07.824Z,26.89
2019-03-13T01:38:07.836Z,26.88
2019-03-13T01:39:07.872Z,26.94
2019-03-13T01:40:07.828Z,26.95
2019-03-13T01:41:07.830Z,26.89
2019-03-13T01:42:07.838Z,26.94
2019-03-13T01:43:07.887Z,27.02
2019-03-13T01:44:07.839Z,26.97
2019-03-13T01:45:07.841Z,26.97
2019-03-13T01:46:07.844Z,26.91
2019-03-13T01:47:07.846Z,26.91
2019-03-13T01:48:07.850Z,26.94
2019-03-13T01:49:07.851Z,26.92
2019-03-13T01:50:07.856Z,26.99
2019-03-13T01:51:07.857Z,26.94
2019-03-13T01:52:07.861Z,26.92
2019-03-13T01:53:07.876Z,27.02
2019-03-13T01:54:07.866Z,26.91
2019-03-13T01:55:07.868Z,26.94
2019-03-13T01:56:07.872Z,26.94
2019-03-13T01:57:07.874Z,26.88
2019-03-13T01:58:07.878Z,26.91
2019-03-13T01:59:07.880Z,26.99
2019-03-13T02:00:07.966Z,26.95
2019-03-13T02:01:07.887Z,26.94
2019-03-13T02:02:07.888Z,26.91
2019-03-13T02:03:07.892Z,26.99
2019-03-13T02:04:07.902Z,26.89
2019-03-13T02:05:07.897Z,26.89
2019-03-13T02:06:07.900Z,26.99
2019-03-13T02:07:07.904Z,26.97
2019-03-13T02:08:08.043Z,26.92
2019-03-13T02:09:07.908Z,26.97
2019-03-13T02:10:07.969Z,26.92
2019-03-13T02:11:07.914Z,26.94
2019-03-13T02:12:07.916Z,26.92
2019-03-13T02:13:07.969Z,26.94
2019-03-13T02:14:07.989Z,26.88
2019-03-13T02:15:07.925Z,26.95
2019-03-13T02:16:07.942Z,26.91
2019-03-13T02:17:07.929Z,26.88
2019-03-13T02:18:07.938Z,26.97
2019-03-13T02:19:07.935Z,26.91
2019-03-13T02:20:07.940Z,26.95
2019-03-13T02:21:07.941Z,26.95
2019-03-13T02:22:07.944Z,26.94
2019-03-13T02:23:07.958Z,27.00
2019-03-13T02:24:07.957Z,26.92
2019-03-13T02:25:07.960Z,26.92
2019-03-13T02:26:07.959Z,26.94
2019-03-13T02:27:07.959Z,26.89
2019-03-13T02:28:07.966Z,26.88
2019-03-13T02:29:07.962Z,26.92
2019-03-13T02:30:07.968Z,26.91
2019-03-13T02:31:07.977Z,26.99
2019-03-13T02:32:07.978Z,26.87
2019-03-13T02:33:08.126Z,26.95
2019-03-13T02:34:07.983Z,26.94
2019-03-13T02:35:07.982Z,26.91
2019-03-13T02:36:07.984Z,26.91
2019-03-13T02:37:07.986Z,26.91
2019-03-13T02:38:07.989Z,26.92
2019-03-13T02:39:07.992Z,26.92
2019-03-13T02:40:07.997Z,26.94
2019-03-13T02:41:07.996Z,26.97
2019-03-13T02:42:08.000Z,26.91
2019-03-13T02:43:08.051Z,26.97
2019-03-13T02:44:08.007Z,26.95
2019-03-13T02:45:08.009Z,26.94
2019-03-13T02:46:08.011Z,26.97
2019-03-13T02:47:08.014Z,26.88
2019-03-13T02:48:08.036Z,26.94
2019-03-13T02:49:08.039Z,26.91
2019-03-13T02:50:08.023Z,26.91
2019-03-13T02:51:08.029Z,26.88
2019-03-13T02:52:08.030Z,26.92
2019-03-13T02:53:08.080Z,26.91
2019-03-13T02:54:08.040Z,26.97
2019-03-13T02:55:08.043Z,26.89
2019-03-13T02:56:08.044Z,26.89
2019-03-13T02:57:08.044Z,26.92
2019-03-13T02:58:08.043Z,26.92
2019-03-13T02:59:08.048Z,26.91
2019-03-13T03:00:08.052Z,26.94
2019-03-13T03:01:08.053Z,26.92
2019-03-13T03:02:08.213Z,26.92
2019-03-13T03:03:08.065Z,26.88
2019-03-13T03:04:08.062Z,26.94
2019-03-13T03:05:08.064Z,26.91
2019-03-13T03:06:08.066Z,26.91
2019-03-13T03:07:08.074Z,26.91
2019-03-13T03:08:08.076Z,26.91
2019-03-13T03:09:08.080Z,26.91
2019-03-13T03:10:08.083Z,26.97
2019-03-13T03:11:08.090Z,26.92
2019-03-13T03:12:08.091Z,26.91
2019-03-13T03:13:08.097Z,26.92
2019-03-13T03:14:08.092Z,26.88
2019-03-13T03:15:08.097Z,26.89
2019-03-13T03:16:08.092Z,26.94
2019-03-13T03:17:08.100Z,26.91
2019-03-13T03:18:08.249Z,26.89
2019-03-13T03:19:08.116Z,26.91
2019-03-13T03:20:08.109Z,26.89
2019-03-13T03:21:08.108Z,26.82
2019-03-13T03:22:08.112Z,26.92
2019-03-13T03:23:08.163Z,26.92
2019-03-13T03:24:08.125Z,26.91
2019-03-13T03:25:08.131Z,26.87
2019-03-13T03:26:08.121Z,26.84
2019-03-13T03:27:08.142Z,26.89
2019-03-13T03:28:08.128Z,26.91
2019-03-13T03:29:08.145Z,26.92
2019-03-13T03:30:08.136Z,26.81
2019-03-13T03:31:08.136Z,26.95
2019-03-13T03:32:08.146Z,26.85
2019-03-13T03:33:08.344Z,26.89
2019-03-13T03:34:08.161Z,26.89
2019-03-13T03:35:08.146Z,26.88
2019-03-13T03:36:08.151Z,26.92
2019-03-13T03:37:08.154Z,26.95
2019-03-13T03:38:08.155Z,26.91
2019-03-13T03:39:08.156Z,26.88
2019-03-13T03:40:08.164Z,26.84
2019-03-13T03:41:08.163Z,26.85
2019-03-13T03:42:08.175Z,26.80
2019-03-13T03:43:08.217Z,26.91
2019-03-13T03:44:08.182Z,26.88
2019-03-13T03:45:08.235Z,26.88
2019-03-13T03:46:08.233Z,26.82
2019-03-13T03:47:08.180Z,26.89
2019-03-13T03:48:08.229Z,26.92
2019-03-13T03:49:08.184Z,26.88
2019-03-13T03:50:08.197Z,26.87
2019-03-13T03:51:08.188Z,26.82
2019-03-13T03:52:08.194Z,26.87
2019-03-13T03:53:08.195Z,26.89
2019-03-13T03:54:08.204Z,26.84
2019-03-13T03:55:08.206Z,26.85
2019-03-13T03:56:08.216Z,26.88
2019-03-13T03:57:08.207Z,26.88
2019-03-13T03:58:08.210Z,26.87
2019-03-13T03:59:08.214Z,26.85
2019-03-13T04:00:08.217Z,26.80
2019-03-13T04:01:08.220Z,26.88
2019-03-13T04:02:08.220Z,26.87
2019-03-13T04:03:08.222Z,26.81
2019-03-13T04:04:08.232Z,26.87
2019-03-13T04:05:08.227Z,26.87
2019-03-13T04:06:08.241Z,26.85
2019-03-13T04:07:08.284Z,26.81
2019-03-13T04:08:08.237Z,26.84
2019-03-13T04:09:08.243Z,26.84
2019-03-13T04:10:08.241Z,26.87
2019-03-13T04:11:08.245Z,26.88
2019-03-13T04:12:08.250Z,26.87
2019-03-13T04:13:08.350Z,26.84
2019-03-13T04:14:08.255Z,26.81
2019-03-13T04:15:08.258Z,26.81
2019-03-13T04:16:08.259Z,26.82
2019-03-13T04:17:08.271Z,26.80
2019-03-13T04:18:08.263Z,26.76
2019-03-13T04:19:08.269Z,26.85
2019-03-13T04:20:08.283Z,26.76
2019-03-13T04:21:08.270Z,26.85
2019-03-13T04:22:08.274Z,26.85
2019-03-13T04:23:08.279Z,26.87
2019-03-13T04:24:08.279Z,26.81
2019-03-13T04:25:08.285Z,26.81
2019-03-13T04:26:12.333Z,26.82
2019-03-13T04:27:08.294Z,26.85
2019-03-13T04:28:08.313Z,26.81
2019-03-13T04:29:08.292Z,26.76
2019-03-13T04:30:08.297Z,26.80
2019-03-13T04:31:08.303Z,26.84
2019-03-13T04:32:08.344Z,26.80
2019-03-13T04:33:08.310Z,26.80
2019-03-13T04:34:08.309Z,26.82
2019-03-13T04:35:08.311Z,26.80
2019-03-13T04:36:08.313Z,26.76
2019-03-13T04:37:08.314Z,26.88
2019-03-13T04:38:08.325Z,26.82
2019-03-13T04:39:08.325Z,26.84
2019-03-13T04:40:08.324Z,26.80
2019-03-13T04:41:08.328Z,26.82
2019-03-13T04:42:08.330Z,26.82
2019-03-13T04:43:08.332Z,26.76
2019-03-13T04:44:08.336Z,26.84
2019-03-13T04:45:08.337Z,26.87
2019-03-13T04:46:08.447Z,26.82
2019-03-13T04:47:08.342Z,26.81
2019-03-13T04:48:08.348Z,26.84
2019-03-13T04:49:08.346Z,26.84
2019-03-13T04:50:08.350Z,26.91
2019-03-13T04:51:08.353Z,26.80
2019-03-13T04:52:08.360Z,26.80
2019-03-13T04:53:08.358Z,26.88
2019-03-13T04:54:08.360Z,26.80
2019-03-13T04:55:08.364Z,26.81
2019-03-13T04:56:08.368Z,26.84
2019-03-13T04:57:08.370Z,26.80
2019-03-13T04:58:08.377Z,26.87
2019-03-13T04:59:08.375Z,26.82
2019-03-13T05:00:08.431Z,26.81
2019-03-13T05:01:08.390Z,26.87
2019-03-13T05:02:08.383Z,26.84
2019-03-13T05:03:08.389Z,26.80
2019-03-13T05:04:08.398Z,26.85
2019-03-13T05:05:08.393Z,26.82
2019-03-13T05:06:08.393Z,26.76
2019-03-13T05:07:08.397Z,26.80
2019-03-13T05:08:08.398Z,26.75
2019-03-13T05:09:08.401Z,26.84
2019-03-13T05:10:08.405Z,26.82
2019-03-13T05:11:08.407Z,26.89
2019-03-13T05:12:08.426Z,26.76
2019-03-13T05:13:08.547Z,26.80
2019-03-13T05:14:08.414Z,26.84
2019-03-13T05:15:08.418Z,26.82
2019-03-13T05:16:08.428Z,26.77
2019-03-13T05:17:08.422Z,26.82
2019-03-13T05:18:08.428Z,26.82
2019-03-13T05:19:08.429Z,26.75
2019-03-13T05:20:08.432Z,26.80
2019-03-13T05:21:08.434Z,26.85
2019-03-13T05:22:08.436Z,26.81
2019-03-13T05:23:08.439Z,26.82
2019-03-13T05:24:08.444Z,26.77
2019-03-13T05:25:08.444Z,26.82
2019-03-13T05:26:08.448Z,26.77
2019-03-13T05:27:08.452Z,26.82
2019-03-13T05:28:08.453Z,26.81
2019-03-13T05:29:08.455Z,26.88
2019-03-13T05:30:08.509Z,26.88
2019-03-13T05:31:08.466Z,26.87
2019-03-13T05:32:08.464Z,26.91
2019-03-13T05:33:08.467Z,26.88
2019-03-13T05:34:08.467Z,26.89
2019-03-13T05:35:08.474Z,26.95
2019-03-13T05:36:08.476Z,26.94
2019-03-13T05:37:08.483Z,26.91
2019-03-13T05:38:08.480Z,26.95
2019-03-13T05:39:08.507Z,26.94
2019-03-13T05:40:08.486Z,26.99
2019-03-13T05:41:08.488Z,27.03
2019-03-13T05:42:08.492Z,27.00
2019-03-13T05:43:08.492Z,26.95
2019-03-13T05:44:08.498Z,27.02
2019-03-13T05:45:08.641Z,27.02
2019-03-13T05:46:08.504Z,27.06
2019-03-13T05:47:08.507Z,27.04
2019-03-13T05:48:08.509Z,27.07
2019-03-13T05:49:08.513Z,27.10
2019-03-13T05:50:08.513Z,27.13
2019-03-13T05:51:08.515Z,27.13
2019-03-13T05:52:08.569Z,27.14
2019-03-13T05:53:08.522Z,27.14
2019-03-13T05:54:08.525Z,27.12
2019-03-13T05:55:08.555Z,27.09
2019-03-13T05:56:08.534Z,27.10
2019-03-13T05:57:08.531Z,27.06
2019-03-13T05:58:08.589Z,27.12
2019-03-13T05:59:08.542Z,27.13
2019-03-13T06:00:08.543Z,27.12
2019-03-13T06:01:08.545Z,27.12
2019-03-13T06:02:08.547Z,27.18
2019-03-13T06:03:08.550Z,27.13
2019-03-13T06:04:08.553Z,27.14
2019-03-13T06:05:08.555Z,27.19
2019-03-13T06:06:08.559Z,27.22
2019-03-13T06:07:08.562Z,27.22
2019-03-13T06:08:08.567Z,27.21
2019-03-13T06:09:08.570Z,27.25
2019-03-13T06:10:08.571Z,27.25
2019-03-13T06:11:08.579Z,27.19
2019-03-13T06:12:08.576Z,27.18
2019-03-13T06:13:08.579Z,27.22
2019-03-13T06:14:08.582Z,27.19
2019-03-13T06:15:08.586Z,27.24
2019-03-13T06:16:08.592Z,27.25
2019-03-13T06:17:08.591Z,27.21
2019-03-13T06:18:09.944Z,27.22
2019-03-13T06:19:08.597Z,27.31
2019-03-13T06:20:10.514Z,27.22
2019-03-13T06:21:08.603Z,27.29
2019-03-13T06:22:08.607Z,27.31
2019-03-13T06:23:08.611Z,27.31
2019-03-13T06:24:08.611Z,27.36
2019-03-13T06:25:08.618Z,27.32
2019-03-13T06:26:08.621Z,27.28
2019-03-13T06:27:08.620Z,27.28
2019-03-13T06:28:08.689Z,27.43
2019-03-13T06:29:08.630Z,27.31
2019-03-13T06:30:08.629Z,27.40
2019-03-13T06:31:08.633Z,27.41
2019-03-13T06:32:08.637Z,27.34
2019-03-13T06:33:08.738Z,27.36
2019-03-13T06:34:11.302Z,27.29
2019-03-13T06:35:08.646Z,27.43
2019-03-13T06:36:08.648Z,27.36
2019-03-13T06:37:08.650Z,27.34
2019-03-13T06:38:08.651Z,27.39
2019-03-13T06:39:08.657Z,27.44
2019-03-13T06:40:08.659Z,27.39
2019-03-13T06:41:08.668Z,27.43
2019-03-13T06:42:08.666Z,27.41
2019-03-13T06:43:08.667Z,27.43
2019-03-13T06:44:08.672Z,27.46
2019-03-13T06:45:08.684Z,27.41
2019-03-13T06:46:08.675Z,27.40
2019-03-13T06:47:08.680Z,27.41
2019-03-13T06:48:08.683Z,27.41
2019-03-13T06:49:08.686Z,27.46
2019-03-13T06:50:08.690Z,27.43
2019-03-13T06:51:08.698Z,27.40
2019-03-13T06:52:08.696Z,27.41
2019-03-13T06:53:08.697Z,27.46
2019-03-13T06:54:08.700Z,27.49
2019-03-13T06:55:08.704Z,27.40
2019-03-13T06:56:08.708Z,27.49
2019-03-13T06:57:08.760Z,27.47
2019-03-13T06:58:08.721Z,27.43
2019-03-13T06:59:08.722Z,27.39
2019-03-13T07:00:08.769Z,27.40
2019-03-13T07:01:08.729Z,27.50
2019-03-13T07:02:08.777Z,27.44
2019-03-13T07:03:08.729Z,27.44
2019-03-13T07:04:08.731Z,27.41
2019-03-13T07:05:08.738Z,27.46
2019-03-13T07:06:08.737Z,27.37
2019-03-13T07:07:08.742Z,27.36
2019-03-13T07:08:08.796Z,27.47
2019-03-13T07:09:08.747Z,27.43
2019-03-13T07:10:08.751Z,27.40
2019-03-13T07:11:08.802Z,27.39
2019-03-13T07:12:08.758Z,27.41
2019-03-13T07:13:08.861Z,27.44
2019-03-13T07:14:08.763Z,27.37
2019-03-13T07:15:08.766Z,27.39
2019-03-13T07:16:08.782Z,27.40
2019-03-13T07:17:08.820Z,27.41
2019-03-13T07:18:08.877Z,27.37
2019-03-13T07:19:08.778Z,27.41
2019-03-13T07:20:08.820Z,27.39
2019-03-13T07:21:08.781Z,27.47
2019-03-13T07:22:08.788Z,27.50
2019-03-13T07:23:08.840Z,27.43
2019-03-13T07:24:08.797Z,27.46
2019-03-13T07:25:08.800Z,27.49
2019-03-13T07:26:08.801Z,27.49
2019-03-13T07:27:08.803Z,27.51
2019-03-13T07:28:08.808Z,27.54
2019-03-13T07:29:12.490Z,27.50
2019-03-13T07:30:08.813Z,27.51
2019-03-13T07:31:08.820Z,27.47
2019-03-13T07:32:08.823Z,27.57
2019-03-13T07:33:08.821Z,27.62
2019-03-13T07:34:08.822Z,27.60
2019-03-13T07:35:08.829Z,27.62
2019-03-13T07:36:08.834Z,27.55
2019-03-13T07:37:08.834Z,27.59
2019-03-13T07:38:08.887Z,27.62
2019-03-13T07:39:08.842Z,27.60
2019-03-13T07:40:08.843Z,27.62
2019-03-13T07:41:08.855Z,27.59
2019-03-13T07:42:08.851Z,27.60
2019-03-13T07:43:08.854Z,27.66
2019-03-13T07:44:08.856Z,27.60
2019-03-13T07:45:08.859Z,27.66
2019-03-13T07:46:08.867Z,27.63
2019-03-13T07:47:08.865Z,27.69
2019-03-13T07:48:08.935Z,27.67
2019-03-13T07:49:08.872Z,27.67
2019-03-13T07:50:08.875Z,27.70
2019-03-13T07:51:08.931Z,27.70
2019-03-13T07:52:08.882Z,27.67
2019-03-13T07:53:08.884Z,27.63
2019-03-13T07:54:08.886Z,27.63
2019-03-13T07:55:08.893Z,27.65
2019-03-13T07:56:08.894Z,27.65
2019-03-13T07:57:08.897Z,27.70
2019-03-13T07:58:08.997Z,27.78
2019-03-13T07:59:08.952Z,27.70
2019-03-13T08:00:08.906Z,27.69
2019-03-13T08:01:08.957Z,27.78
2019-03-13T08:02:08.912Z,27.77
2019-03-13T08:03:08.975Z,27.79
2019-03-13T08:04:08.920Z,27.78
2019-03-13T08:05:08.921Z,27.75
2019-03-13T08:06:08.975Z,27.78
2019-03-13T08:07:08.976Z,27.78
2019-03-13T08:08:08.931Z,27.81
2019-03-13T08:09:08.935Z,27.78
2019-03-13T08:10:08.937Z,27.74
2019-03-13T08:11:08.941Z,27.72
2019-03-13T08:12:09.046Z,27.69
2019-03-13T08:13:08.948Z,27.85
2019-03-13T08:14:08.952Z,27.78
2019-03-13T08:15:08.956Z,27.84
2019-03-13T08:16:08.958Z,27.88
2019-03-13T08:17:09.027Z,27.90
2019-03-13T08:18:08.964Z,27.90
2019-03-13T08:19:08.966Z,27.81
2019-03-13T08:20:08.969Z,27.70
2019-03-13T08:21:08.989Z,27.79
2019-03-13T08:22:08.976Z,27.75
2019-03-13T08:23:08.980Z,27.84
2019-03-13T08:24:08.984Z,27.78
2019-03-13T08:25:08.986Z,27.79
2019-03-13T08:26:08.989Z,27.78
2019-03-13T08:27:08.995Z,27.84
2019-03-13T08:28:08.996Z,27.87
2019-03-13T08:29:08.999Z,27.72
2019-03-13T08:30:09.056Z,27.82
2019-03-13T08:31:09.004Z,27.92
2019-03-13T08:32:09.009Z,27.82
2019-03-13T08:33:09.012Z,27.92
2019-03-13T08:34:09.065Z,27.77
2019-03-13T08:35:09.069Z,27.87
2019-03-13T08:36:09.021Z,27.81
2019-03-13T08:37:09.021Z,27.90
2019-03-13T08:38:09.028Z,27.97
2019-03-13T08:39:09.030Z,27.85
2019-03-13T08:40:09.035Z,27.84
2019-03-13T08:41:09.039Z,27.84
2019-03-13T08:42:09.093Z,27.77
2019-03-13T08:43:09.046Z,27.97
2019-03-13T08:44:09.048Z,27.79
2019-03-13T08:45:09.062Z,27.94
2019-03-13T08:46:09.058Z,27.88
2019-03-13T08:47:09.061Z,27.96
2019-03-13T08:48:09.112Z,27.90
2019-03-13T08:49:09.065Z,27.88
2019-03-13T08:50:09.067Z,27.94
2019-03-13T08:51:09.128Z,27.90
2019-03-13T08:52:09.074Z,27.90
2019-03-13T08:53:09.075Z,27.93
2019-03-13T08:54:09.131Z,27.84
2019-03-13T08:55:09.088Z,27.93
2019-03-13T08:56:09.092Z,27.92
2019-03-13T08:57:09.090Z,27.92
2019-03-13T08:58:09.096Z,27.90
2019-03-13T08:59:09.113Z,27.94
2019-03-13T09:00:09.103Z,27.92
2019-03-13T09:01:09.109Z,27.93
2019-03-13T09:02:09.158Z,27.88
2019-03-13T09:03:09.314Z,27.82
2019-03-13T09:04:09.113Z,27.92
2019-03-13T09:05:09.168Z,27.93
2019-03-13T09:06:09.171Z,27.88
2019-03-13T09:07:09.174Z,27.93
2019-03-13T09:08:09.128Z,27.88
2019-03-13T09:09:09.133Z,27.88
2019-03-13T09:10:09.134Z,27.96
2019-03-13T09:11:09.137Z,27.93
2019-03-13T09:12:09.143Z,27.97
2019-03-13T09:13:09.144Z,27.90
2019-03-13T09:14:09.147Z,27.93
2019-03-13T09:15:09.207Z,27.99
2019-03-13T09:16:09.159Z,27.90
2019-03-13T09:17:09.158Z,27.93
2019-03-13T09:18:09.260Z,27.92
2019-03-13T09:19:09.161Z,27.87
2019-03-13T09:20:09.169Z,27.92
2019-03-13T09:21:09.273Z,27.92
2019-03-13T09:22:09.179Z,27.92
2019-03-13T09:23:09.179Z,27.88
2019-03-13T09:24:09.181Z,27.97
2019-03-13T09:25:12.332Z,27.96
2019-03-13T09:26:09.237Z,27.94
2019-03-13T09:27:09.191Z,27.87
2019-03-13T09:28:09.194Z,27.90
2019-03-13T09:29:09.198Z,27.92
2019-03-13T09:30:09.201Z,27.87
2019-03-13T09:31:09.219Z,27.96
2019-03-13T09:32:09.210Z,27.85
2019-03-13T09:33:09.309Z,27.96
2019-03-13T09:34:09.263Z,27.94
2019-03-13T09:35:09.271Z,28.00
2019-03-13T09:36:09.224Z,28.00
2019-03-13T09:37:09.222Z,27.93
2019-03-13T09:38:09.225Z,27.93
2019-03-13T09:39:09.231Z,28.02
2019-03-13T09:40:09.237Z,27.93
2019-03-13T09:41:09.238Z,27.94
2019-03-13T09:42:09.241Z,27.93
2019-03-13T09:43:09.296Z,28.00
2019-03-13T09:44:09.265Z,28.02
2019-03-13T09:45:09.294Z,27.90
2019-03-13T09:46:09.260Z,27.97
2019-03-13T09:47:09.309Z,27.94
2019-03-13T09:48:09.265Z,27.93
2019-03-13T09:49:09.268Z,27.97
2019-03-13T09:50:09.324Z,27.99
2019-03-13T09:51:09.272Z,28.00
2019-03-13T09:52:09.326Z,28.00
2019-03-13T09:53:09.275Z,27.96
2019-03-13T09:54:09.280Z,28.03
2019-03-13T09:55:09.283Z,27.94
2019-03-13T09:56:09.313Z,28.07
2019-03-13T09:57:09.294Z,28.04
2019-03-13T09:58:09.296Z,28.03
2019-03-13T09:59:09.300Z,28.03
2019-03-13T10:00:09.302Z,28.07
2019-03-13T10:01:09.305Z,28.09
2019-03-13T10:02:09.309Z,28.06
2019-03-13T10:03:09.314Z,28.11
2019-03-13T10:04:09.318Z,28.04
2019-03-13T10:05:09.316Z,28.06
2019-03-13T10:06:09.326Z,28.06
2019-03-13T10:07:09.335Z,28.03
2019-03-13T10:08:09.329Z,28.04
2019-03-13T10:09:09.338Z,28.09
2019-03-13T10:10:09.388Z,28.11
2019-03-13T10:11:09.393Z,28.12
2019-03-13T10:12:09.347Z,28.06
2019-03-13T10:13:09.443Z,28.12
2019-03-13T10:14:09.350Z,28.03
2019-03-13T10:15:09.355Z,28.00
2019-03-13T10:16:09.367Z,28.12
2019-03-13T10:17:10.942Z,28.04
2019-03-13T10:18:09.465Z,28.02
2019-03-13T10:19:09.367Z,28.09
2019-03-13T10:20:09.420Z,28.07
2019-03-13T10:21:09.373Z,28.09
2019-03-13T10:22:09.375Z,28.11
2019-03-13T10:23:09.380Z,28.04
2019-03-13T10:24:09.385Z,28.06
2019-03-13T10:25:09.386Z,28.07
2019-03-13T10:26:09.410Z,28.06
2019-03-13T10:27:09.394Z,28.02
2019-03-13T10:28:09.398Z,28.12
2019-03-13T10:29:09.450Z,28.00
2019-03-13T10:30:09.405Z,28.00
2019-03-13T10:31:09.422Z,28.09
2019-03-13T10:32:09.412Z,28.21
2019-03-13T10:33:09.466Z,28.22
2019-03-13T10:34:09.419Z,28.15
2019-03-13T10:35:09.422Z,28.09
2019-03-13T10:36:09.477Z,28.22
2019-03-13T10:37:09.429Z,28.18
2019-03-13T10:38:14.037Z,28.19
2019-03-13T10:39:09.484Z,28.18
2019-03-13T10:40:09.442Z,28.11
2019-03-13T10:41:09.452Z,28.14
2019-03-13T10:42:09.445Z,28.15
2019-03-13T10:43:09.448Z,28.22
2019-03-13T10:44:09.453Z,28.21
2019-03-13T10:45:09.455Z,28.07
2019-03-13T10:46:09.514Z,28.19
2019-03-13T10:47:09.468Z,28.11
2019-03-13T10:48:09.469Z,28.18
2019-03-13T10:49:09.517Z,28.25
2019-03-13T10:50:09.473Z,28.18
2019-03-13T10:51:09.475Z,28.14
2019-03-13T10:52:09.480Z,28.09
2019-03-13T10:53:09.533Z,28.18
2019-03-13T10:54:09.494Z,28.18
2019-03-13T10:55:09.544Z,28.15
2019-03-13T10:56:09.602Z,28.14
2019-03-13T10:57:09.499Z,28.18
2019-03-13T10:58:09.604Z,28.11
2019-03-13T10:59:09.553Z,28.14
2019-03-13T11:00:09.509Z,28.15
2019-03-13T11:01:09.621Z,28.11
2019-03-13T11:02:09.526Z,28.17
2019-03-13T11:03:09.618Z,28.17
2019-03-13T11:04:09.523Z,28.07
2019-03-13T11:05:09.526Z,28.14
2019-03-13T11:06:09.530Z,28.11
2019-03-13T11:07:09.532Z,28.07
2019-03-13T11:08:09.538Z,28.11
2019-03-13T11:09:09.539Z,28.12
2019-03-13T11:10:09.542Z,28.09
2019-03-13T11:11:09.546Z,28.03
2019-03-13T11:12:09.549Z,28.11
2019-03-13T11:13:09.652Z,28.07
2019-03-13T11:14:15.370Z,28.03
2019-03-13T11:15:09.612Z,28.03
2019-03-13T11:16:09.587Z,28.00
2019-03-13T11:17:09.566Z,28.03
2019-03-13T11:18:09.569Z,28.03
2019-03-13T11:19:09.573Z,27.97
2019-03-13T11:20:09.585Z,28.06
2019-03-13T11:21:09.594Z,28.04
2019-03-13T11:22:09.585Z,28.09
2019-03-13T11:23:09.590Z,28.07
2019-03-13T11:24:09.602Z,28.04
2019-03-13T11:25:09.594Z,28.09
2019-03-13T11:26:09.671Z,28.14
2019-03-13T11:27:09.602Z,28.12
2019-03-13T11:28:09.605Z,28.09
2019-03-13T11:29:09.658Z,28.11
2019-03-13T11:30:09.613Z,28.14
2019-03-13T11:31:09.615Z,28.11
2019-03-13T11:32:09.669Z,28.12
2019-03-13T11:33:09.723Z,28.12
2019-03-13T11:34:09.643Z,28.09
2019-03-13T11:35:09.631Z,28.14
2019-03-13T11:36:09.633Z,28.22
2019-03-13T11:37:09.684Z,28.18
2019-03-13T11:38:09.939Z,28.21
2019-03-13T11:39:09.642Z,28.21
2019-03-13T11:40:09.653Z,28.22
2019-03-13T11:41:09.663Z,28.22
2019-03-13T11:42:09.653Z,28.22
2019-03-13T11:43:09.660Z,28.24
2019-03-13T11:44:09.760Z,28.27
2019-03-13T11:45:09.663Z,28.18
2019-03-13T11:46:09.666Z,28.22
2019-03-13T11:47:09.671Z,28.14
2019-03-13T11:48:09.673Z,28.19
2019-03-13T11:49:09.684Z,28.21
2019-03-13T11:50:09.680Z,28.24
2019-03-13T11:51:09.686Z,28.19
2019-03-13T11:52:09.688Z,28.21
2019-03-13T11:53:09.790Z,28.22
2019-03-13T11:54:09.696Z,28.22
2019-03-13T11:55:09.700Z,28.27
2019-03-13T11:56:09.754Z,28.18
2019-03-13T11:57:09.704Z,28.22
2019-03-13T11:58:09.759Z,28.25
2019-03-13T11:59:09.715Z,28.22
2019-03-13T12:00:09.716Z,28.24
2019-03-13T12:01:09.718Z,28.19
2019-03-13T12:02:09.775Z,28.24
2019-03-13T12:03:09.977Z,28.24
2019-03-13T12:04:09.730Z,28.21
2019-03-13T12:05:09.730Z,28.29
2019-03-13T12:06:09.736Z,28.30
2019-03-13T12:07:09.740Z,28.22
2019-03-13T12:08:09.805Z,28.24
2019-03-13T12:09:09.846Z,28.18
2019-03-13T12:10:09.801Z,28.24
2019-03-13T12:11:09.764Z,28.24
2019-03-13T12:12:09.755Z,28.24
2019-03-13T12:13:10.642Z,28.22
2019-03-13T12:14:09.762Z,28.24
2019-03-13T12:15:09.769Z,28.25
2019-03-13T12:16:09.783Z,28.24
2019-03-13T12:17:09.775Z,28.22
2019-03-13T12:18:09.778Z,28.19
2019-03-13T12:19:09.790Z,28.21
2019-03-13T12:20:09.788Z,28.24
2019-03-13T12:21:09.796Z,28.30
2019-03-13T12:22:09.790Z,28.27
2019-03-13T12:23:09.800Z,28.27
2019-03-13T12:24:09.800Z,28.29
2019-03-13T12:25:09.803Z,28.31
2019-03-13T12:26:09.857Z,28.29
2019-03-13T12:27:09.814Z,28.25
2019-03-13T12:28:09.813Z,28.27
2019-03-13T12:29:09.814Z,28.31
2019-03-13T12:30:09.822Z,28.29
2019-03-13T12:31:09.826Z,28.24
2019-03-13T12:32:09.828Z,28.21
2019-03-13T12:33:09.831Z,28.29
2019-03-13T12:34:09.834Z,28.24
2019-03-13T12:35:09.837Z,28.24
2019-03-13T12:36:09.896Z,28.18
2019-03-13T12:37:09.851Z,28.21
2019-03-13T12:38:09.847Z,28.18
2019-03-13T12:39:09.853Z,28.22
2019-03-13T12:40:09.958Z,28.19
2019-03-13T12:41:09.860Z,28.18
2019-03-13T12:42:09.863Z,28.30
2019-03-13T12:43:09.866Z,28.25
2019-03-13T12:44:09.870Z,28.22
2019-03-13T12:45:09.875Z,28.19
2019-03-13T12:46:09.888Z,28.15
2019-03-13T12:47:09.884Z,28.27
2019-03-13T12:48:16.769Z,28.22
2019-03-13T12:49:09.938Z,28.21
2019-03-13T12:50:09.892Z,28.21
2019-03-13T12:51:09.893Z,28.24
2019-03-13T12:52:09.899Z,28.22